createdAt,value
2018-11-23T00:01:20.247Z,2.20
2018-11-23T00:03:53.313Z,2.43
2018-11-23T00:09:07.373Z,1.87
2018-11-23T00:11:40.800Z,2.63
2018-11-23T00:14:14.113Z,2.10
2018-11-23T00:16:47.372Z,1.50
2018-11-23T00:19:20.807Z,1.70
2018-11-23T00:21:54.406Z,2.10
2018-11-23T00:24:28.120Z,1.80
2018-11-23T00:27:01.630Z,1.50
2018-11-23T00:32:24.548Z,1.50
2018-11-23T00:34:57.862Z,1.80
2018-11-23T00:40:02.399Z,1.95
2018-11-23T00:42:35.801Z,2.05
2018-11-23T00:45:09.824Z,1.70
2018-11-23T00:47:42.964Z,1.90
2018-11-23T00:50:18.814Z,1.67
2018-11-23T00:52:52.637Z,1.80
2018-11-23T00:55:27.120Z,1.80
2018-11-23T00:58:00.129Z,1.90
2018-11-23T01:00:36.386Z,1.82
2018-11-23T01:03:09.433Z,1.80
2018-11-23T01:05:42.817Z,1.82
2018-11-23T01:08:16.125Z,1.87
2018-11-23T01:10:49.403Z,1.65
2018-11-23T01:13:22.669Z,1.60
2018-11-23T01:15:55.924Z,1.55
2018-11-23T01:18:29.070Z,1.80
2018-11-23T01:21:02.365Z,1.60
2018-11-23T01:23:35.988Z,1.80
2018-11-23T01:26:09.416Z,1.80
2018-11-23T01:28:42.869Z,1.62
2018-11-23T01:31:16.135Z,1.65
2018-11-23T01:33:49.391Z,1.70
2018-11-23T01:41:05.654Z,1.60
2018-11-23T01:43:38.664Z,1.60
2018-11-23T01:46:12.670Z,1.60
2018-11-23T01:51:17.495Z,1.60
2018-11-23T01:53:50.825Z,1.50
2018-11-23T01:56:24.019Z,1.67
2018-11-23T01:58:57.142Z,1.35
2018-11-23T02:01:30.402Z,1.47
2018-11-23T02:04:03.757Z,1.40
2018-11-23T02:06:36.841Z,1.67
2018-11-23T02:09:11.402Z,1.67
2018-11-23T02:14:15.861Z,1.90
2018-11-23T02:16:49.153Z,2.05
2018-11-23T02:19:23.481Z,2.40
2018-11-23T02:21:56.946Z,2.10
2018-11-23T02:27:01.585Z,2.27
2018-11-23T02:29:35.413Z,2.70
2018-11-23T02:32:08.876Z,2.60
2018-11-23T02:37:14.152Z,5.80
2018-11-23T02:39:47.469Z,8.05
2018-11-23T02:42:20.885Z,8.48
2018-11-23T02:44:54.167Z,8.53
2018-11-23T02:47:27.507Z,37.48
2018-11-23T02:50:00.887Z,69.65
2018-11-23T02:52:34.161Z,9.43
2018-11-23T02:55:07.428Z,6.30
2018-11-23T02:57:41.418Z,6.40
2018-11-23T03:00:16.706Z,6.67
2018-11-23T03:02:50.774Z,14.65
2018-11-23T03:05:25.472Z,13.53
2018-11-23T03:07:58.856Z,13.97
2018-11-23T03:10:31.860Z,6.17
2018-11-23T03:13:05.265Z,4.33
2018-11-23T03:15:38.465Z,3.67
2018-11-23T03:18:12.677Z,6.05
2018-11-23T03:20:46.855Z,3.60
2018-11-23T03:23:20.341Z,3.70
2018-11-23T03:25:55.001Z,2.90
2018-11-23T03:28:29.064Z,2.50
2018-11-23T03:31:03.073Z,2.90
2018-11-23T03:33:36.433Z,2.47
2018-11-23T03:36:09.857Z,2.52
2018-11-23T03:38:43.034Z,2.08
2018-11-23T03:41:16.524Z,2.72
2018-11-23T03:43:50.081Z,2.37
2018-11-23T03:46:23.433Z,2.00
2018-11-23T03:48:56.441Z,1.97
2018-11-23T03:51:30.460Z,1.82
2018-11-23T03:54:03.873Z,1.80
2018-11-23T03:56:37.033Z,1.87
2018-11-23T03:59:10.252Z,1.70
2018-11-23T04:01:43.463Z,1.77
2018-11-23T04:04:16.466Z,1.97
2018-11-23T04:06:50.979Z,1.90
2018-11-23T04:09:24.458Z,2.00
2018-11-23T04:11:58.063Z,1.80
2018-11-23T04:14:32.186Z,2.17
2018-11-23T04:17:05.728Z,1.70
2018-11-23T04:19:39.483Z,2.30
2018-11-23T04:22:13.120Z,1.77
2018-11-23T04:24:46.526Z,1.67
2018-11-23T04:27:20.059Z,1.40
2018-11-23T04:29:53.483Z,1.80
2018-11-23T04:32:27.115Z,1.87
2018-11-23T04:35:00.554Z,1.72
2018-11-23T04:40:05.190Z,1.70
2018-11-23T04:44:02.107Z,1.80
2018-11-23T04:46:35.584Z,1.65
2018-11-23T04:51:40.178Z,1.85
2018-11-23T04:56:17.617Z,1.80
2018-11-23T04:58:51.146Z,1.50
2018-11-23T05:01:24.433Z,1.60
2018-11-23T05:03:57.893Z,1.50
2018-11-23T05:13:03.572Z,1.82
2018-11-23T05:15:37.688Z,1.67
2018-11-23T05:18:11.601Z,1.73
2018-11-23T05:20:44.609Z,1.60
2018-11-23T05:23:18.070Z,1.60
2018-11-23T05:25:51.276Z,1.67
2018-11-23T05:28:24.606Z,1.72
2018-11-23T05:31:25.611Z,2.12
2018-11-23T05:33:59.582Z,1.90
2018-11-23T05:36:33.317Z,1.40
2018-11-23T05:39:07.126Z,1.95
2018-11-23T05:41:40.374Z,1.87
2018-11-23T05:44:14.080Z,1.40
2018-11-23T05:46:47.411Z,1.80
2018-11-23T05:49:20.615Z,1.87
2018-11-23T05:51:53.712Z,1.87
2018-11-23T05:54:27.146Z,1.75
2018-11-23T05:59:48.216Z,1.70
2018-11-23T06:02:21.702Z,1.80
2018-11-23T06:04:55.160Z,1.90
2018-11-23T06:07:28.159Z,1.70
2018-11-23T06:10:01.600Z,2.00
2018-11-23T06:12:34.820Z,2.15
2018-11-23T06:15:08.472Z,2.05
2018-11-23T06:17:42.217Z,2.03
2018-11-23T06:20:18.290Z,1.90
2018-11-23T06:22:52.230Z,2.10
2018-11-23T06:25:30.283Z,1.95
2018-11-23T06:29:31.042Z,1.85
2018-11-23T06:32:04.711Z,2.10
2018-11-23T06:35:22.242Z,1.95
2018-11-23T06:37:55.853Z,1.60
2018-11-23T06:40:29.649Z,1.80
2018-11-23T06:43:03.162Z,1.87
2018-11-23T06:45:43.602Z,2.00
2018-11-23T06:48:16.842Z,1.70
2018-11-23T06:50:50.245Z,1.70
2018-11-23T06:53:24.223Z,1.62
2018-11-23T06:55:58.192Z,1.70
2018-11-23T06:58:31.617Z,1.75
2018-11-23T07:01:04.627Z,1.52
2018-11-23T07:03:38.060Z,1.50
2018-11-23T07:06:11.278Z,1.90
2018-11-23T07:08:44.732Z,1.70
2018-11-23T07:16:03.819Z,2.00
2018-11-23T07:23:34.724Z,1.40
2018-11-23T07:26:08.293Z,1.57
2018-11-23T07:28:41.731Z,2.15
2018-11-23T07:33:47.275Z,1.50
2018-11-23T07:36:21.260Z,1.37
2018-11-23T07:38:54.701Z,1.37
2018-11-23T07:41:36.786Z,1.50
2018-11-23T07:44:10.161Z,1.40
2018-11-23T07:46:43.629Z,1.40
2018-11-23T07:49:17.182Z,1.60
2018-11-23T07:51:50.483Z,1.37
2018-11-23T07:54:24.265Z,1.50
2018-11-23T07:56:57.781Z,1.45
2018-11-23T08:02:02.743Z,1.70
2018-11-23T08:04:36.220Z,1.62
2018-11-23T08:07:11.025Z,1.30
2018-11-23T08:12:16.794Z,1.30
2018-11-23T08:14:50.281Z,1.75
2018-11-23T08:17:23.665Z,1.82
2018-11-23T08:19:57.071Z,1.20
2018-11-23T08:22:30.328Z,1.37
2018-11-23T08:25:04.226Z,1.55
2018-11-23T08:27:38.479Z,1.40
2018-11-23T08:32:45.326Z,1.47
2018-11-23T08:35:19.152Z,1.42
2018-11-23T08:40:40.145Z,1.42
2018-11-23T08:43:13.474Z,1.50
2018-11-23T08:45:47.100Z,1.40
2018-11-23T08:48:20.325Z,1.50
2018-11-23T08:54:41.270Z,1.20
2018-11-23T08:57:15.244Z,1.30
2018-11-23T08:59:48.653Z,1.30
2018-11-23T09:02:21.682Z,1.37
2018-11-23T09:07:27.577Z,1.20
2018-11-23T09:10:01.109Z,1.32
2018-11-23T09:12:34.652Z,1.22
2018-11-23T09:15:09.171Z,1.02
2018-11-23T09:20:15.338Z,1.20
2018-11-23T09:22:48.879Z,1.37
2018-11-23T09:25:23.808Z,1.35
2018-11-23T09:27:57.651Z,1.30
2018-11-23T09:30:32.187Z,1.20
2018-11-23T09:33:05.241Z,1.30
2018-11-23T09:35:38.661Z,1.20
2018-11-23T09:38:12.090Z,1.30
2018-11-23T09:40:45.211Z,1.30
2018-11-23T09:43:18.351Z,1.17
2018-11-23T09:45:51.657Z,1.10
2018-11-23T09:48:24.983Z,1.42
2018-11-23T09:50:58.306Z,1.20
2018-11-23T09:53:32.086Z,1.22
2018-11-23T09:56:05.559Z,1.10
2018-11-23T09:58:43.475Z,1.15
2018-11-23T10:01:13.441Z,0.95
2018-11-23T10:03:47.425Z,1.10
2018-11-23T10:06:22.496Z,1.20
2018-11-23T10:08:56.547Z,1.13
2018-11-23T10:11:30.337Z,1.05
2018-11-23T10:14:03.875Z,1.00
2018-11-23T10:16:37.399Z,1.00
2018-11-23T10:19:14.982Z,1.00
2018-11-23T10:21:48.562Z,1.00
2018-11-23T10:24:23.588Z,1.10
2018-11-23T10:26:56.173Z,1.10
2018-11-23T10:29:30.579Z,1.10
2018-11-23T10:32:04.482Z,1.00
2018-11-23T10:34:38.384Z,1.10
2018-11-23T10:37:12.332Z,0.90
2018-11-23T10:39:45.888Z,1.10
2018-11-23T10:42:19.296Z,1.10
2018-11-23T10:44:53.297Z,0.98
2018-11-23T10:47:27.541Z,1.00
2018-11-23T10:50:01.005Z,1.10
2018-11-23T10:52:34.683Z,0.85
2018-11-23T10:55:09.548Z,1.10
2018-11-23T10:57:43.074Z,0.87
2018-11-23T11:00:23.569Z,0.90
2018-11-23T11:03:10.480Z,0.90
2018-11-23T11:05:48.395Z,1.10
2018-11-23T11:08:22.365Z,0.90
2018-11-23T11:10:56.396Z,0.90
2018-11-23T11:13:29.931Z,0.90
2018-11-23T11:16:03.366Z,0.83
2018-11-23T11:18:36.809Z,1.00
2018-11-23T11:21:10.706Z,0.90
2018-11-23T11:26:15.582Z,0.83
2018-11-23T11:28:49.348Z,0.90
2018-11-23T11:31:23.165Z,1.20
2018-11-23T11:33:57.199Z,0.80
2018-11-23T11:36:31.241Z,1.10
2018-11-23T11:39:05.059Z,0.80
2018-11-23T11:41:38.737Z,0.90
2018-11-23T11:44:12.323Z,0.93
2018-11-23T11:46:46.379Z,0.78
2018-11-23T11:51:52.758Z,1.00
2018-11-23T11:54:26.674Z,0.80
2018-11-23T11:57:00.739Z,0.85
2018-11-23T11:59:34.384Z,1.00
2018-11-23T12:02:10.275Z,0.90
2018-11-23T12:04:43.219Z,0.90
2018-11-23T12:07:17.722Z,0.77
2018-11-23T12:09:52.015Z,0.80
2018-11-23T12:12:25.882Z,0.70
2018-11-23T12:14:59.889Z,0.90
2018-11-23T12:17:33.643Z,0.77
2018-11-23T12:20:08.222Z,0.73
2018-11-23T12:22:42.367Z,1.00
2018-11-23T12:25:16.180Z,0.83
2018-11-23T12:27:50.546Z,0.70
2018-11-23T12:30:25.087Z,0.80
2018-11-23T12:32:58.697Z,0.80
2018-11-23T12:38:04.735Z,0.90
2018-11-23T12:40:38.902Z,0.80
2018-11-23T12:43:12.870Z,0.83
2018-11-23T12:45:46.813Z,0.80
2018-11-23T12:48:20.826Z,0.90
2018-11-23T12:50:54.530Z,0.70
2018-11-23T12:53:28.909Z,0.70
2018-11-23T12:56:03.086Z,1.00
2018-11-23T12:58:37.066Z,0.70
2018-11-23T13:01:11.075Z,0.77
2018-11-23T13:03:45.369Z,0.80
2018-11-23T13:06:19.249Z,0.72
2018-11-23T13:08:53.090Z,0.60
2018-11-23T13:11:27.085Z,0.80
2018-11-23T13:14:01.074Z,0.80
2018-11-23T13:16:35.084Z,0.80
2018-11-23T13:19:08.774Z,0.70
2018-11-23T13:21:42.562Z,0.70
2018-11-23T13:24:16.693Z,0.50
2018-11-23T13:29:22.887Z,0.50
2018-11-23T13:31:56.961Z,0.70
2018-11-23T13:34:30.824Z,0.60
2018-11-23T13:37:04.613Z,0.70
2018-11-23T13:39:38.763Z,0.63
2018-11-23T13:42:12.702Z,0.80
2018-11-23T13:44:46.414Z,0.70
2018-11-23T13:47:20.308Z,0.60
2018-11-23T13:49:54.173Z,0.60
2018-11-23T13:52:28.097Z,0.72
2018-11-23T13:55:01.824Z,0.70
2018-11-23T13:57:36.153Z,0.67
2018-11-23T14:00:12.364Z,0.80
2018-11-23T14:02:46.926Z,0.50
2018-11-23T14:05:23.311Z,0.80
2018-11-23T14:07:58.634Z,0.60
2018-11-23T14:13:11.033Z,0.60
2018-11-23T14:15:38.801Z,0.70
2018-11-23T14:18:12.723Z,0.78
2018-11-23T14:20:46.526Z,0.77
2018-11-23T14:23:20.567Z,0.50
2018-11-23T14:25:54.880Z,0.50
2018-11-23T14:28:28.539Z,0.60
2018-11-23T14:31:02.302Z,0.70
2018-11-23T14:33:36.529Z,0.60
2018-11-23T14:36:10.987Z,0.70
2018-11-23T14:38:44.991Z,0.50
2018-11-23T14:41:18.991Z,0.60
2018-11-23T14:43:52.829Z,0.63
2018-11-23T14:46:26.779Z,0.62
2018-11-23T14:49:00.251Z,0.60
2018-11-23T14:51:34.019Z,0.50
2018-11-23T14:54:08.550Z,0.60
2018-11-23T14:56:42.650Z,0.50
2018-11-23T14:59:16.790Z,0.70
2018-11-23T15:01:52.166Z,0.60
2018-11-23T15:04:24.735Z,0.70
2018-11-23T15:06:59.277Z,0.50
2018-11-23T15:09:33.230Z,0.80
2018-11-23T15:12:07.409Z,0.60
2018-11-23T15:14:41.229Z,0.65
2018-11-23T15:17:15.333Z,0.60
2018-11-23T15:19:49.139Z,0.80
2018-11-23T15:22:22.795Z,0.63
2018-11-23T15:24:56.786Z,0.70
2018-11-23T15:27:31.140Z,0.70
2018-11-23T15:30:04.939Z,0.70
2018-11-23T15:32:38.786Z,0.60
2018-11-23T15:35:13.016Z,0.80
2018-11-23T15:37:46.751Z,0.60
2018-11-23T15:40:26.956Z,0.60
2018-11-23T15:43:02.451Z,0.60
2018-11-23T15:45:37.110Z,0.70
2018-11-23T15:48:12.661Z,0.70
2018-11-23T15:50:46.934Z,0.70
2018-11-23T15:53:21.708Z,0.57
2018-11-23T15:55:56.983Z,0.60
2018-11-23T15:58:31.860Z,0.55
2018-11-23T16:01:07.311Z,0.80
2018-11-23T16:03:41.329Z,0.70
2018-11-23T16:06:15.142Z,0.70
2018-11-23T16:08:49.294Z,0.70
2018-11-23T16:11:25.121Z,0.63
2018-11-23T16:13:59.150Z,0.70
2018-11-23T16:16:33.142Z,0.80
2018-11-23T16:19:07.121Z,0.83
2018-11-23T16:21:41.143Z,0.80
2018-11-23T16:24:14.744Z,0.90
2018-11-23T16:26:48.955Z,0.83
2018-11-23T16:29:22.723Z,1.00
2018-11-23T16:31:56.781Z,0.80
2018-11-23T16:34:30.292Z,1.00
2018-11-23T16:37:04.251Z,1.00
2018-11-23T16:39:38.290Z,1.00
2018-11-23T16:42:11.976Z,0.97
2018-11-23T16:44:46.005Z,0.90
2018-11-23T16:47:20.051Z,0.97
2018-11-23T16:49:54.727Z,1.00
2018-11-23T16:52:28.747Z,1.00
2018-11-23T16:55:02.320Z,1.10
2018-11-23T16:57:35.888Z,0.80
2018-11-23T17:00:13.317Z,1.30
2018-11-23T17:02:47.461Z,1.00
2018-11-23T17:08:02.314Z,1.10
2018-11-23T17:10:36.000Z,1.00
2018-11-23T17:13:09.775Z,0.90
2018-11-23T17:15:43.309Z,0.90
2018-11-23T17:18:16.980Z,1.10
2018-11-23T17:20:50.772Z,0.90
2018-11-23T17:23:24.928Z,1.10
2018-11-23T17:25:58.712Z,0.90
2018-11-23T17:31:04.329Z,1.00
2018-11-23T17:36:10.185Z,1.00
2018-11-23T17:38:47.618Z,0.80
2018-11-23T17:41:17.994Z,0.83
2018-11-23T17:43:51.757Z,0.87
2018-11-23T17:46:25.755Z,0.90
2018-11-23T17:49:00.701Z,0.85
2018-11-23T17:51:34.049Z,0.80
2018-11-23T17:54:07.845Z,0.80
2018-11-23T17:56:40.777Z,0.80
2018-11-23T17:59:14.712Z,0.80
2018-11-23T18:01:48.305Z,0.80
2018-11-23T18:04:22.078Z,0.98
2018-11-23T18:06:55.903Z,0.70
2018-11-23T18:09:29.554Z,0.90
2018-11-23T18:12:03.573Z,1.00
2018-11-23T18:14:36.834Z,0.90
2018-11-23T18:17:10.780Z,0.95
2018-11-23T18:19:44.186Z,0.90
2018-11-23T18:22:18.243Z,0.90
2018-11-23T18:24:52.466Z,0.90
2018-11-23T18:27:25.962Z,0.90
2018-11-23T18:29:59.866Z,0.65
2018-11-23T18:32:34.784Z,0.60
2018-11-23T18:35:09.766Z,0.90
2018-11-23T18:37:44.043Z,0.80
2018-11-23T18:40:18.452Z,0.80
2018-11-23T18:42:52.292Z,0.90
2018-11-23T18:45:26.110Z,1.10
2018-11-23T18:47:59.835Z,0.90
2018-11-23T18:50:33.190Z,0.95
2018-11-23T18:53:06.774Z,1.00
2018-11-23T18:55:40.783Z,0.80
2018-11-23T19:00:46.326Z,1.00
2018-11-23T19:03:20.001Z,0.90
2018-11-23T19:05:53.607Z,0.97
2018-11-23T19:08:27.022Z,0.90
2018-11-23T19:11:01.299Z,1.20
2018-11-23T19:13:35.340Z,0.87
2018-11-23T19:16:09.033Z,0.90
2018-11-23T19:18:43.174Z,1.00
2018-11-23T19:21:16.922Z,0.87
2018-11-23T19:23:51.022Z,0.95
2018-11-23T19:26:24.906Z,0.90
2018-11-23T19:28:58.848Z,0.90
2018-11-23T19:31:32.731Z,0.70
2018-11-23T19:34:06.470Z,1.00
2018-11-23T19:36:40.332Z,1.00
2018-11-23T19:39:14.012Z,1.00
2018-11-23T19:41:47.647Z,0.78
2018-11-23T19:44:21.437Z,0.90
2018-11-23T19:46:55.782Z,1.00
2018-11-23T19:49:29.879Z,1.27
2018-11-23T19:52:03.858Z,0.90
2018-11-23T19:54:37.386Z,0.90
2018-11-23T19:57:11.001Z,1.00
2018-11-23T20:02:10.845Z,0.93
2018-11-23T20:04:44.559Z,0.90
2018-11-23T20:07:18.099Z,0.90
2018-11-23T20:10:44.315Z,0.88
2018-11-23T20:13:18.174Z,0.80
2018-11-23T20:15:51.740Z,1.00
2018-11-23T20:18:25.106Z,1.20
2018-11-23T20:20:59.135Z,0.98
2018-11-23T20:23:32.925Z,1.10
2018-11-23T20:26:06.499Z,0.80
2018-11-23T20:28:40.150Z,1.17
2018-11-23T20:31:13.718Z,0.90
2018-11-23T20:33:47.320Z,0.80
2018-11-23T20:36:21.088Z,1.00
2018-11-23T20:39:45.066Z,0.93
2018-11-23T20:42:19.235Z,1.12
2018-11-23T20:44:53.089Z,1.10
2018-11-23T20:47:26.411Z,0.98
2018-11-23T20:49:59.418Z,1.00
2018-11-23T20:52:32.714Z,0.90
2018-11-23T20:57:37.156Z,0.90
2018-11-23T21:00:14.182Z,0.82
2018-11-23T21:02:47.818Z,0.80
2018-11-23T21:05:21.668Z,0.80
2018-11-23T21:07:55.361Z,0.80
2018-11-23T21:10:29.336Z,1.00
2018-11-23T21:13:02.614Z,0.90
2018-11-23T21:15:36.101Z,0.90
2018-11-23T21:18:10.098Z,0.90
2018-11-23T21:20:44.093Z,0.90
2018-11-23T21:23:17.925Z,1.00
2018-11-23T21:25:51.231Z,0.95
2018-11-23T21:28:24.704Z,1.32
2018-11-23T21:30:57.999Z,0.90
2018-11-23T21:33:31.288Z,1.20
2018-11-23T21:36:05.827Z,1.30
2018-11-23T21:41:11.838Z,2.00
2018-11-23T21:43:45.267Z,1.53
2018-11-23T21:46:19.719Z,1.30
2018-11-23T21:48:55.015Z,1.60
2018-11-23T21:51:30.398Z,1.67
2018-11-23T21:54:03.756Z,1.70
2018-11-23T21:57:01.353Z,2.20
2018-11-23T21:59:35.521Z,2.10
2018-11-23T22:02:09.057Z,2.40
2018-11-23T22:04:42.738Z,2.75
2018-11-23T22:07:16.090Z,2.62
2018-11-23T22:09:50.098Z,3.30
2018-11-23T22:14:55.435Z,3.83
2018-11-23T22:17:29.021Z,4.10
2018-11-23T22:20:03.152Z,4.58
2018-11-23T22:22:36.544Z,4.80
2018-11-23T22:25:11.522Z,4.85
2018-11-23T22:27:45.023Z,4.73
2018-11-23T22:30:25.043Z,4.77
2018-11-23T22:32:59.358Z,4.50
2018-11-23T22:38:05.369Z,4.65
2018-11-23T22:40:38.562Z,5.37
2018-11-23T22:43:12.010Z,5.40
2018-11-23T22:45:45.770Z,5.35
2018-11-23T22:48:19.065Z,5.40
2018-11-23T22:50:53.365Z,5.40
2018-11-23T22:53:27.989Z,5.47
2018-11-23T22:56:01.647Z,6.60
2018-11-23T23:08:16.554Z,8.15
2018-11-23T23:10:49.560Z,9.23
2018-11-23T23:13:22.550Z,7.43
2018-11-23T23:15:55.961Z,10.30
2018-11-23T23:18:29.161Z,10.50
2018-11-23T23:21:02.769Z,10.60
2018-11-23T23:23:36.590Z,11.03
2018-11-23T23:26:09.965Z,10.85
2018-11-23T23:28:43.181Z,10.32
2018-11-23T23:31:16.573Z,9.60
2018-11-23T23:33:49.869Z,9.40
2018-11-23T23:36:23.661Z,10.07
2018-11-23T23:38:57.098Z,9.53
2018-11-23T23:41:30.431Z,9.80
2018-11-23T23:47:20.133Z,10.00
2018-11-23T23:49:53.221Z,9.37
2018-11-23T23:58:48.148Z,8.15
